Manoa — KDBG — position and weather

sailwx.info

Track history (hours):
 
Tides and Currents Weather Stations Pressure Air Temp Water Temp Dewpoint Dewpoint Depression Visibility Wind Speed Wind Dir Waves Ship Positions

Manoa

Owner: MATSON NAVIGATION CO, RALEIGH, NC. More information available from US FCC via Universal Licensing System and Coast Guard Vessel Documentation Center.

Last reported at 2017-Aug-17 15:31 UTC. Time now 2017-Aug-17 15:35 UTC.
Position N 36°41' W 122°29'.

Type: Cargo ship. MMSI: 366562000.

Date/timePositionNaut miles runAvg speedWind from/ knotsBaromVisibWave heightAir tempDewpointWater temp
2017-Aug-17 15:31N 36°41' W 122°29'917.6
2017-Aug-17 15:01N 36°50' W 122°33'917.8
2017-Aug-17 14:30N 36°58' W 122°37'917.3
2017-Aug-17 14:00N 37°06' W 122°41'815.6
2017-Aug-17 13:30N 37°13' W 122°44'815.2
2017-Aug-17 13:01N 37°21' W 122°44'815.3
2017-Aug-17 12:31N 37°29' W 122°44'815.1
2017-Aug-17 12:01N 37°36' W 122°44'714.5
2017-Aug-17 11:30N 37°43' W 122°41'5 9.1
2017-Aug-17 11:00N 37°46' W 122°37'815.2
2017-Aug-17 10:30N 37°50' W 122°28'510.0
2017-Aug-17 10:00N 37°48' W 122°22'3 6.4
2017-Aug-17 09:31N 37°48' W 122°18'0 0.4
2017-Aug-17 08:58N 37°48' W 122°18'0 0.0
2017-Aug-17 08:28N 37°48' W 122°18'0 0.0
2017-Aug-17 07:58N 37°48' W 122°18'0 0.0
2017-Aug-17 07:28N 37°48' W 122°18'0 0.0
2017-Aug-17 06:58N 37°48' W 122°18'0 0.0
2017-Aug-17 06:28N 37°48' W 122°18'0 0.0
2017-Aug-17 05:58N 37°48' W 122°18'0 0.0
2017-Aug-17 05:28N 37°48' W 122°18'0 0.0
2017-Aug-17 04:58N 37°48' W 122°18'0 0.0
2017-Aug-17 04:28N 37°48' W 122°18'0 0.0
2017-Aug-17 03:58N 37°48' W 122°18'0 0.0
2017-Aug-17 03:28N 37°48' W 122°18'0 0.0
2017-Aug-17 02:58N 37°48' W 122°18'0 0.0
2017-Aug-17 02:28N 37°48' W 122°18'0 0.0
2017-Aug-17 01:58N 37°48' W 122°18'0 0.0
2017-Aug-17 01:28N 37°48' W 122°18'0 0.0
2017-Aug-17 00:58N 37°48' W 122°18'0 0.0
2017-Aug-17 00:28N 37°48' W 122°18'0 0.0
2017-Aug-16 23:58N 37°48' W 122°18'0 0.0
2017-Aug-16 23:28N 37°48' W 122°18'0 0.0
2017-Aug-16 22:58N 37°48' W 122°18'0 0.0
2017-Aug-16 22:28N 37°48' W 122°18'0 0.0
2017-Aug-16 21:58N 37°48' W 122°18'0 0.0
2017-Aug-16 21:28N 37°48' W 122°18'0 0.0
2017-Aug-16 20:58N 37°48' W 122°18'0 0.0
2017-Aug-16 20:28N 37°48' W 122°18'0 0.0
2017-Aug-16 19:58N 37°48' W 122°18'0 0.0
2017-Aug-16 19:28N 37°48' W 122°18'0 0.0
2017-Aug-16 18:58N 37°48' W 122°18'0 0.0
2017-Aug-16 18:28N 37°48' W 122°18'0 0.0
2017-Aug-16 17:58N 37°48' W 122°18'0 0.0
2017-Aug-16 17:28N 37°48' W 122°18'0 0.0
2017-Aug-16 16:58N 37°48' W 122°18'0 0.0
2017-Aug-16 16:28N 37°48' W 122°18'0 0.0
2017-Aug-16 15:58N 37°48' W 122°18'0 0.0
2017-Aug-16 15:28N 37°48' W 122°18'0 0.0
2017-Aug-16 14:58N 37°48' W 122°18'0 0.0
2017-Aug-16 14:28N 37°48' W 122°18'1 1.2
2017-Aug-16 14:01N 37°48' W 122°17'2 3.3
2017-Aug-16 13:31N 37°48' W 122°19'2 4.6
2017-Aug-16 13:00N 37°47' W 122°22'3 5.3
2017-Aug-16 12:30N 37°49' W 122°24'714.4
2017-Aug-16 12:00N 37°47' W 122°33'713.2
2017-Aug-16 11:31N 37°45' W 122°41'5 9.1
2017-Aug-16 11:01N 37°42' W 122°45'510.7
2017-Aug-16 10:31N 37°39' W 122°51'510.7
2017-Aug-16 10:01N 37°36' W 122°57'611.6
2017-Aug-16 09:30N 37°32' W 123°03'917.2
2017-Aug-16 09:00N 37°29' W 123°13'917.6
2017-Aug-16 08:29N 37°26' W 123°24'817.7
2017-Aug-16 08:00N 37°24' W 123°34'917.7
2017-Aug-16 07:30N 37°21' W 123°44'816.2
2017-Aug-16 06:59N 37°18' W 123°54'4517.8
2017-Aug-16 04:27N 37°02' W 124°48'817.5
2017-Aug-16 04:00N 36°60' W 124°57'2018.0
2017-Aug-16 02:54N 36°53' W 125°20'2018.0
2017-Aug-16 01:46N 36°46' W 125°44'  
2017-Aug-13 00:00N 25°06' W 151°30'   080 / 101017.527.0 25.619.628.3
2017-Aug-09 12:00N 22°48' W 154°06'53922.4 080 / 131017.910.8 24.420.327.8
2017-Aug-08 12:00N 26°30' W 145°06'26321.9 060 / 101020.010.8 22.816.526.6
2017-Aug-08 00:00N 28°06' W 140°30'   050 / 121019.810.8 23.916.625.3
Track history (hours):
 
Tides and Currents Weather Stations Pressure Air Temp Water Temp Dewpoint Dewpoint Depression Visibility Wind Speed Wind Dir Waves Ship Positions

Manoa

Owner: MATSON NAVIGATION CO, RALEIGH, NC. More information available from US FCC via Universal Licensing System and Coast Guard Vessel Documentation Center.

Last reported at 2017-Aug-17 15:31 UTC. Time now 2017-Aug-17 15:35 UTC.
Position N 36°41' W 122°29'.

Type: Cargo ship. MMSI: 366562000.

Date/timePositionNaut miles runAvg speedWind from/ knotsBaromVisibWave heightAir tempDewpointWater temp
2017-Aug-17 15:31N 36°41' W 122°29'917.6
2017-Aug-17 15:01N 36°50' W 122°33'917.8
2017-Aug-17 14:30N 36°58' W 122°37'917.3
2017-Aug-17 14:00N 37°06' W 122°41'815.6
2017-Aug-17 13:30N 37°13' W 122°44'815.2
2017-Aug-17 13:01N 37°21' W 122°44'815.3
2017-Aug-17 12:31N 37°29' W 122°44'815.1
2017-Aug-17 12:01N 37°36' W 122°44'714.5
2017-Aug-17 11:30N 37°43' W 122°41'5 9.1
2017-Aug-17 11:00N 37°46' W 122°37'815.2
2017-Aug-17 10:30N 37°50' W 122°28'510.0
2017-Aug-17 10:00N 37°48' W 122°22'3 6.4
2017-Aug-17 09:31N 37°48' W 122°18'0 0.4
2017-Aug-17 08:58N 37°48' W 122°18'0 0.0
2017-Aug-17 08:28N 37°48' W 122°18'0 0.0
2017-Aug-17 07:58N 37°48' W 122°18'0 0.0
2017-Aug-17 07:28N 37°48' W 122°18'0 0.0
2017-Aug-17 06:58N 37°48' W 122°18'0 0.0
2017-Aug-17 06:28N 37°48' W 122°18'0 0.0
2017-Aug-17 05:58N 37°48' W 122°18'0 0.0
2017-Aug-17 05:28N 37°48' W 122°18'0 0.0
2017-Aug-17 04:58N 37°48' W 122°18'0 0.0
2017-Aug-17 04:28N 37°48' W 122°18'0 0.0
2017-Aug-17 03:58N 37°48' W 122°18'0 0.0
2017-Aug-17 03:28N 37°48' W 122°18'0 0.0
2017-Aug-17 02:58N 37°48' W 122°18'0 0.0
2017-Aug-17 02:28N 37°48' W 122°18'0 0.0
2017-Aug-17 01:58N 37°48' W 122°18'0 0.0
2017-Aug-17 01:28N 37°48' W 122°18'0 0.0
2017-Aug-17 00:58N 37°48' W 122°18'0 0.0
2017-Aug-17 00:28N 37°48' W 122°18'0 0.0
2017-Aug-16 23:58N 37°48' W 122°18'0 0.0
2017-Aug-16 23:28N 37°48' W 122°18'0 0.0
2017-Aug-16 22:58N 37°48' W 122°18'0 0.0
2017-Aug-16 22:28N 37°48' W 122°18'0 0.0
2017-Aug-16 21:58N 37°48' W 122°18'0 0.0
2017-Aug-16 21:28N 37°48' W 122°18'0 0.0
2017-Aug-16 20:58N 37°48' W 122°18'0 0.0
2017-Aug-16 20:28N 37°48' W 122°18'0 0.0
2017-Aug-16 19:58N 37°48' W 122°18'0 0.0
2017-Aug-16 19:28N 37°48' W 122°18'0 0.0
2017-Aug-16 18:58N 37°48' W 122°18'0 0.0
2017-Aug-16 18:28N 37°48' W 122°18'0 0.0
2017-Aug-16 17:58N 37°48' W 122°18'0 0.0
2017-Aug-16 17:28N 37°48' W 122°18'0 0.0
2017-Aug-16 16:58N 37°48' W 122°18'0 0.0
2017-Aug-16 16:28N 37°48' W 122°18'0 0.0
2017-Aug-16 15:58N 37°48' W 122°18'0 0.0
2017-Aug-16 15:28N 37°48' W 122°18'0 0.0
2017-Aug-16 14:58N 37°48' W 122°18'0 0.0
2017-Aug-16 14:28N 37°48' W 122°18'1 1.2
2017-Aug-16 14:01N 37°48' W 122°17'2 3.3
2017-Aug-16 13:31N 37°48' W 122°19'2 4.6
2017-Aug-16 13:00N 37°47' W 122°22'3 5.3
2017-Aug-16 12:30N 37°49' W 122°24'714.4
2017-Aug-16 12:00N 37°47' W 122°33'713.2
2017-Aug-16 11:31N 37°45' W 122°41'5 9.1
2017-Aug-16 11:01N 37°42' W 122°45'510.7
2017-Aug-16 10:31N 37°39' W 122°51'510.7
2017-Aug-16 10:01N 37°36' W 122°57'611.6
2017-Aug-16 09:30N 37°32' W 123°03'917.2
2017-Aug-16 09:00N 37°29' W 123°13'917.6
2017-Aug-16 08:29N 37°26' W 123°24'817.7
2017-Aug-16 08:00N 37°24' W 123°34'917.7
2017-Aug-16 07:30N 37°21' W 123°44'816.2
2017-Aug-16 06:59N 37°18' W 123°54'4517.8
2017-Aug-16 04:27N 37°02' W 124°48'817.5
2017-Aug-16 04:00N 36°60' W 124°57'2018.0
2017-Aug-16 02:54N 36°53' W 125°20'2018.0
2017-Aug-16 01:46N 36°46' W 125°44'  
2017-Aug-13 00:00N 25°06' W 151°30'   080 / 101017.527.0 25.619.628.3
2017-Aug-09 12:00N 22°48' W 154°06'53922.4 080 / 131017.910.8 24.420.327.8
2017-Aug-08 12:00N 26°30' W 145°06'26321.9 060 / 101020.010.8 22.816.526.6
2017-Aug-08 00:00N 28°06' W 140°30'   050 / 121019.810.8 23.916.625.3

Dump ship's entire track history